Time;durP1;ratioP1;P1;durP2;ratioP2;P2;SDS_P1;SDS_P2;PMS_P1;PMS_P2;Temp;Humidity;BMP_temperature;BMP_pressure;BME280_temperature;BME280_humidity;BME280_pressure;Samples;Min_cycle;Max_cycle;Signal;HPM_P1;HPM_P2
2023/01/26 00:01:08;;;;;;;22.90;12.90;;;;;;;;;;763205;182;813820;-63
2023/01/26 00:03:33;;;;;;;23.37;14.03;;;;;;;;;;768293;182;717052;-69
2023/01/26 00:06:02;;;;;;;25.87;14.40;;;;;;;;;;761907;179;920450;-67
2023/01/26 00:08:28;;;;;;;19.63;12.53;;;;;;;;;;774121;180;628238;-67
2023/01/26 00:10:54;;;;;;;24.80;12.63;;;;;;;;;;781824;180;632950;-67
2023/01/26 00:13:21;;;;;;;19.97;12.67;;;;;;;;;;782619;180;617208;-62
2023/01/26 00:15:46;;;;;;;23.33;13.45;;;;;;;;;;773789;180;714255;-68
2023/01/26 00:18:12;;;;;;;20.70;12.13;;;;;;;;;;769876;181;915300;-62
2023/01/26 00:20:37;;;;;;;27.27;14.47;;;;;;;;;;776134;181;906567;-63
2023/01/26 00:23:03;;;;;;;24.77;13.40;;;;;;;;;;772560;181;898005;-67
2023/01/26 00:25:29;;;;;;;21.30;13.30;;;;;;;;;;771938;181;942548;-65
2023/01/26 00:27:55;;;;;;;28.43;12.87;;;;;;;;;;774143;181;917119;-62
2023/01/26 00:30:21;;;;;;;23.80;14.70;;;;;;;;;;768621;181;920434;-62
2023/01/26 00:32:47;;;;;;;22.60;14.10;;;;;;;;;;769748;181;917794;-62
2023/01/26 00:35:12;;;;;;;23.43;15.50;;;;;;;;;;766525;181;913140;-67
2023/01/26 00:37:41;;;;;;;24.33;14.47;;;;;;;;;;775100;181;817678;-62
2023/01/26 00:40:08;;;;;;;24.20;14.33;;;;;;;;;;769187;181;918172;-67
2023/01/26 00:42:34;;;;;;;25.70;12.80;;;;;;;;;;770918;180;918854;-63
2023/01/26 00:44:59;;;;;;;21.60;11.90;;;;;;;;;;780247;180;919104;-63
2023/01/26 00:47:25;;;;;;;21.93;12.70;;;;;;;;;;774741;180;904241;-63
2023/01/26 00:49:51;;;;;;;19.43;11.40;;;;;;;;;;772744;179;919502;-67
2023/01/26 00:52:17;;;;;;;22.63;13.50;;;;;;;;;;763692;182;919426;-67
2023/01/26 00:54:43;;;;;;;27.40;14.10;;;;;;;;;;770708;182;918435;-67
2023/01/26 00:57:09;;;;;;;19.83;12.30;;;;;;;;;;773986;179;921846;-62
2023/01/26 00:59:35;;;;;;;19.73;12.27;;;;;;;;;;767719;180;917959;-63
2023/01/26 01:02:01;;;;;;;21.40;12.93;;;;;;;;;;780974;179;817562;-63
2023/01/26 01:04:26;;;;;;;25.00;13.03;;;;;;;;;;781126;179;929731;-68
2023/01/26 01:06:52;;;;;;;21.57;12.90;;;;;;;;;;773813;180;817062;-63
2023/01/26 01:09:18;;;;;;;22.00;12.50;;;;;;;;;;779691;180;916479;-62
2023/01/26 01:11:44;;;;;;;17.63;11.50;;;;;;;;;;773632;180;919462;-63
2023/01/26 01:14:10;;;;;;;22.23;13.97;;;;;;;;;;761877;182;816637;-63
2023/01/26 01:16:36;;;;;;;19.57;12.20;;;;;;;;;;780514;180;875016;-67
2023/01/26 01:19:01;;;;;;;28.40;13.20;;;;;;;;;;774548;180;913527;-67
2023/01/26 01:21:27;;;;;;;21.20;13.87;;;;;;;;;;772373;180;919034;-63
2023/01/26 01:23:53;;;;;;;24.40;12.80;;;;;;;;;;771375;180;921680;-63
2023/01/26 01:26:19;;;;;;;27.97;14.73;;;;;;;;;;778445;180;919745;-67
2023/01/26 01:28:45;;;;;;;24.83;14.30;;;;;;;;;;772213;180;919284;-68
2023/01/26 01:31:11;;;;;;;22.90;14.10;;;;;;;;;;774244;180;918866;-62
2023/01/26 01:33:36;;;;;;;26.20;12.27;;;;;;;;;;780327;179;816545;-63
2023/01/26 01:36:02;;;;;;;24.73;12.57;;;;;;;;;;772403;180;919201;-62
2023/01/26 01:38:28;;;;;;;25.60;14.40;;;;;;;;;;774425;181;919175;-63
2023/01/26 01:40:54;;;;;;;21.13;13.20;;;;;;;;;;772977;181;919646;-63
2023/01/26 01:43:20;;;;;;;23.13;13.20;;;;;;;;;;761517;182;918328;-62
2023/01/26 01:45:46;;;;;;;30.30;15.13;;;;;;;;;;760212;181;919207;-62
2023/01/26 01:48:12;;;;;;;22.37;12.70;;;;;;;;;;764520;181;919047;-63
2023/01/26 01:50:38;;;;;;;21.90;13.43;;;;;;;;;;769087;181;907441;-66
2023/01/26 01:53:04;;;;;;;27.80;14.87;;;;;;;;;;768605;181;1123499;-67
2023/01/26 01:55:30;;;;;;;24.43;12.93;;;;;;;;;;770578;180;918771;-66
2023/01/26 01:57:57;;;;;;;20.97;10.87;;;;;;;;;;778489;180;918909;-62
2023/01/26 02:00:21;;;;;;;25.30;12.30;;;;;;;;;;771802;178;978955;-62
2023/01/26 02:03:09;;;;;;;23.50;13.20;;;;;;;;;;775574;179;917930;-67
2023/01/26 02:05:16;;;;;;;27.93;13.53;;;;;;;;;;776545;180;928921;-66
2023/01/26 02:07:42;;;;;;;22.70;13.90;;;;;;;;;;767539;181;921741;-62
2023/01/26 02:12:39;;;;;;;20.83;12.10;;;;;;;;;;761444;181;919801;-62
2023/01/26 02:15:06;;;;;;;20.20;12.70;;;;;;;;;;770723;181;920428;-62
2023/01/26 02:17:32;;;;;;;25.83;13.73;;;;;;;;;;776513;180;918770;-67
2023/01/26 02:20:15;;;;;;;26.13;14.37;;;;;;;;;;773861;180;919684;-67
2023/01/26 02:22:56;;;;;;;24.87;15.97;;;;;;;;;;774844;180;920747;-61
2023/01/26 02:25:25;;;;;;;26.20;13.13;;;;;;;;;;769797;180;818750;-66
2023/01/26 02:27:50;;;;;;;25.93;14.40;;;;;;;;;;770822;181;919048;-63
2023/01/26 02:30:16;;;;;;;26.03;14.43;;;;;;;;;;763356;180;919286;-62
2023/01/26 02:32:42;;;;;;;25.43;13.97;;;;;;;;;;772845;180;919480;-61
2023/01/26 02:35:08;;;;;;;24.75;13.60;;;;;;;;;;774329;180;912466;-66
2023/01/26 02:37:34;;;;;;;23.50;15.17;;;;;;;;;;782709;180;918643;-66
2023/01/26 02:40:01;;;;;;;23.40;13.20;;;;;;;;;;773488;180;1126790;-66
2023/01/26 02:44:59;;;;;;;25.77;12.77;;;;;;;;;;773825;181;918384;-65
2023/01/26 02:47:25;;;;;;;29.37;14.10;;;;;;;;;;771463;181;917995;-66
2023/01/26 02:49:51;;;;;;;23.43;13.57;;;;;;;;;;767492;181;918356;-62
2023/01/26 02:52:17;;;;;;;22.43;13.80;;;;;;;;;;768186;181;921281;-67
2023/01/26 02:57:14;;;;;;;24.27;13.67;;;;;;;;;;771736;180;919119;-68
2023/01/26 02:59:40;;;;;;;22.50;13.70;;;;;;;;;;772307;180;919461;-66
2023/01/26 03:02:06;;;;;;;20.37;13.23;;;;;;;;;;774780;180;920087;-66
2023/01/26 03:04:32;;;;;;;21.07;13.33;;;;;;;;;;768598;180;915767;-62
2023/01/26 03:06:57;;;;;;;28.93;14.90;;;;;;;;;;772321;181;919050;-66
2023/01/26 03:09:23;;;;;;;22.33;12.37;;;;;;;;;;769808;181;920426;-61
2023/01/26 03:11:50;;;;;;;23.50;12.90;;;;;;;;;;772783;180;833391;-67
2023/01/26 03:14:15;;;;;;;22.67;13.43;;;;;;;;;;774049;179;919038;-62
2023/01/26 03:16:41;;;;;;;20.33;12.40;;;;;;;;;;768115;182;919173;-61
2023/01/26 03:29:17;;;;;;;25.30;15.20;;;;;;;;;;769081;179;919590;-61
2023/01/26 03:31:43;;;;;;;26.93;16.90;;;;;;;;;;780405;180;935417;-67
2023/01/26 03:34:09;;;;;;;26.73;16.10;;;;;;;;;;775632;180;918751;-62
2023/01/26 03:36:36;;;;;;;23.37;14.00;;;;;;;;;;774710;180;916747;-61
2023/01/26 03:39:00;;;;;;;29.53;14.07;;;;;;;;;;779287;180;914831;-61
2023/01/26 03:56:36;;;;;;;28.80;14.10;;;;;;;;;;771519;180;918575;-61
2023/01/26 03:59:12;;;;;;;27.60;14.20;;;;;;;;;;768298;181;1021942;-66
2023/01/26 04:01:38;;;;;;;24.30;14.60;;;;;;;;;;765581;181;919751;-67
2023/01/26 04:09:07;;;;;;;26.00;14.00;;;;;;;;;;768245;179;919990;-65
2023/01/26 04:11:33;;;;;;;25.30;15.07;;;;;;;;;;771765;180;919662;-65
2023/01/26 04:21:34;;;;;;;23.07;14.70;;;;;;;;;;770648;180;1018613;-60
2023/01/26 04:24:00;;;;;;;25.27;13.67;;;;;;;;;;776535;179;920049;-65
2023/01/26 04:26:25;;;;;;;20.80;13.00;;;;;;;;;;775084;179;816177;-65
2023/01/26 04:28:51;;;;;;;23.83;13.53;;;;;;;;;;772270;179;919462;-65
2023/01/26 04:31:17;;;;;;;24.37;12.90;;;;;;;;;;770783;180;922251;-60
2023/01/26 04:33:43;;;;;;;21.83;13.73;;;;;;;;;;773352;180;919962;-61
2023/01/26 04:36:09;;;;;;;24.13;13.90;;;;;;;;;;768770;181;918548;-61
2023/01/26 04:38:35;;;;;;;21.63;12.03;;;;;;;;;;769797;179;923107;-61
2023/01/26 04:41:01;;;;;;;22.55;13.20;;;;;;;;;;770114;179;917915;-66
2023/01/26 04:43:27;;;;;;;20.27;11.93;;;;;;;;;;764028;181;917611;-65
2023/01/26 04:45:56;;;;;;;24.87;14.07;;;;;;;;;;769427;179;941575;-60
2023/01/26 04:48:22;;;;;;;22.83;13.50;;;;;;;;;;775625;180;817039;-60
2023/01/26 04:50:53;;;;;;;27.43;14.37;;;;;;;;;;766021;181;921780;-65
2023/01/26 04:53:19;;;;;;;23.77;13.53;;;;;;;;;;772769;180;918130;-65
2023/01/26 04:55:45;;;;;;;21.17;12.90;;;;;;;;;;770588;180;918967;-65
2023/01/26 04:58:11;;;;;;;21.17;13.80;;;;;;;;;;776994;180;915199;-61
2023/01/26 05:00:36;;;;;;;24.70;14.23;;;;;;;;;;774806;180;815733;-61
2023/01/26 05:03:02;;;;;;;30.40;15.77;;;;;;;;;;769822;181;788056;-60
2023/01/26 05:05:28;;;;;;;25.33;14.00;;;;;;;;;;777779;181;810697;-61
2023/01/26 05:07:54;;;;;;;27.50;14.43;;;;;;;;;;772014;180;916863;-60
2023/01/26 05:10:20;;;;;;;20.60;13.80;;;;;;;;;;770858;180;919817;-64
2023/01/26 05:12:45;;;;;;;23.40;13.85;;;;;;;;;;777070;179;890541;-60
2023/01/26 05:15:11;;;;;;;28.43;15.13;;;;;;;;;;778661;179;629632;-60
2023/01/26 05:17:37;;;;;;;31.57;15.20;;;;;;;;;;763896;181;626192;-60
2023/01/26 05:20:03;;;;;;;23.43;14.40;;;;;;;;;;772600;180;818593;-65
2023/01/26 05:22:29;;;;;;;26.47;15.17;;;;;;;;;;769909;180;920001;-65
2023/01/26 05:24:55;;;;;;;26.47;15.33;;;;;;;;;;765115;183;775916;-65
2023/01/26 05:27:21;;;;;;;19.23;13.93;;;;;;;;;;767204;180;913231;-65
2023/01/26 05:29:47;;;;;;;32.93;16.83;;;;;;;;;;771874;180;821710;-60
2023/01/26 05:32:12;;;;;;;28.20;16.07;;;;;;;;;;770400;179;977828;-61
2023/01/26 05:34:38;;;;;;;21.50;14.53;;;;;;;;;;773829;179;918431;-61
2023/01/26 05:37:04;;;;;;;28.53;15.73;;;;;;;;;;782042;178;816603;-61
2023/01/26 05:39:30;;;;;;;29.90;16.35;;;;;;;;;;777503;180;914533;-65
2023/01/26 05:41:56;;;;;;;30.23;16.57;;;;;;;;;;777190;180;919388;-65
2023/01/26 05:44:22;;;;;;;26.00;15.77;;;;;;;;;;776556;180;911513;-61
2023/01/26 05:46:47;;;;;;;26.45;15.57;;;;;;;;;;772914;180;829317;-60
2023/01/26 05:49:13;;;;;;;27.90;14.50;;;;;;;;;;776941;179;922578;-60
2023/01/26 05:51:39;;;;;;;26.00;16.17;;;;;;;;;;778364;180;736707;-65
2023/01/26 05:54:05;;;;;;;27.10;17.52;;;;;;;;;;776724;181;715324;-65
2023/01/26 05:56:31;;;;;;;28.60;16.57;;;;;;;;;;760462;181;818669;-65
2023/01/26 05:58:57;;;;;;;28.15;15.20;;;;;;;;;;768391;181;874265;-60
2023/01/26 06:01:23;;;;;;;27.20;17.30;;;;;;;;;;773141;182;919391;-65
2023/01/26 06:03:48;;;;;;;27.00;15.80;;;;;;;;;;766762;181;917339;-66
2023/01/26 06:06:14;;;;;;;25.47;15.67;;;;;;;;;;771813;179;926316;-60
2023/01/26 06:08:40;;;;;;;25.63;15.67;;;;;;;;;;768731;181;906301;-66
2023/01/26 06:11:06;;;;;;;31.43;15.50;;;;;;;;;;773777;180;919293;-65
2023/01/26 06:13:32;;;;;;;26.37;15.43;;;;;;;;;;776014;179;915659;-61
2023/01/26 06:16:00;;;;;;;26.90;15.30;;;;;;;;;;768512;179;914938;-65
2023/01/26 06:18:25;;;;;;;29.87;15.70;;;;;;;;;;775613;181;918081;-60
2023/01/26 06:20:51;;;;;;;25.87;16.80;;;;;;;;;;762826;181;917135;-61
2023/01/26 06:23:17;;;;;;;30.60;17.00;;;;;;;;;;773852;180;817210;-66
2023/01/26 06:25:43;;;;;;;27.50;15.83;;;;;;;;;;775655;181;918713;-61
2023/01/26 06:28:09;;;;;;;34.10;18.70;;;;;;;;;;770777;180;918683;-67
2023/01/26 06:30:35;;;;;;;29.53;16.97;;;;;;;;;;768632;180;918571;-67
2023/01/26 06:33:00;;;;;;;29.23;15.47;;;;;;;;;;778141;180;815212;-61
2023/01/26 06:35:27;;;;;;;32.17;16.60;;;;;;;;;;768440;181;919265;-66
2023/01/26 06:37:52;;;;;;;26.30;17.00;;;;;;;;;;770304;180;918780;-67
2023/01/26 06:40:18;;;;;;;27.23;16.47;;;;;;;;;;774016;181;819333;-61
2023/01/26 06:42:46;;;;;;;25.03;14.93;;;;;;;;;;781375;181;614393;-65
2023/01/26 06:45:12;;;;;;;32.10;18.10;;;;;;;;;;774880;181;919001;-61
2023/01/26 06:47:37;;;;;;;28.93;17.00;;;;;;;;;;776824;179;918942;-61
2023/01/26 06:50:03;;;;;;;32.40;14.87;;;;;;;;;;781046;179;911705;-67
2023/01/26 06:52:29;;;;;;;29.60;17.42;;;;;;;;;;770737;179;912543;-61
2023/01/26 06:54:55;;;;;;;30.10;16.63;;;;;;;;;;775015;180;920635;-62
2023/01/26 06:57:21;;;;;;;27.77;16.63;;;;;;;;;;774748;180;920787;-66
2023/01/26 06:59:47;;;;;;;34.20;17.63;;;;;;;;;;769883;181;918812;-66
2023/01/26 07:02:13;;;;;;;28.30;17.43;;;;;;;;;;768598;181;918294;-61
2023/01/26 07:04:39;;;;;;;26.80;14.93;;;;;;;;;;764307;182;938030;-66
2023/01/26 07:07:05;;;;;;;31.12;16.62;;;;;;;;;;775616;181;918370;-61
2023/01/26 07:09:31;;;;;;;34.63;18.00;;;;;;;;;;761130;182;919471;-62
2023/01/26 07:11:57;;;;;;;32.13;17.02;;;;;;;;;;770933;179;919141;-61
2023/01/26 07:14:23;;;;;;;28.53;17.07;;;;;;;;;;779092;180;918907;-61
2023/01/26 07:16:49;;;;;;;35.43;18.10;;;;;;;;;;770851;180;816728;-66
2023/01/26 07:19:14;;;;;;;36.60;18.20;;;;;;;;;;771433;181;816973;-61
2023/01/26 07:21:40;;;;;;;30.27;16.07;;;;;;;;;;780657;179;918612;-61
2023/01/26 07:24:06;;;;;;;40.47;16.47;;;;;;;;;;774961;180;915741;-68
2023/01/26 07:26:32;;;;;;;28.85;16.80;;;;;;;;;;774472;179;816793;-61
2023/01/26 07:28:58;;;;;;;26.93;16.80;;;;;;;;;;763241;183;918386;-61
2023/01/26 07:31:24;;;;;;;31.60;17.87;;;;;;;;;;766475;184;919196;-60
2023/01/26 07:33:49;;;;;;;25.40;14.80;;;;;;;;;;766492;180;919038;-66
2023/01/26 07:36:15;;;;;;;27.50;16.80;;;;;;;;;;772350;181;920043;-66
2023/01/26 07:38:41;;;;;;;27.70;15.00;;;;;;;;;;778377;180;918586;-60
2023/01/26 07:41:07;;;;;;;27.17;15.80;;;;;;;;;;777237;179;919428;-61
2023/01/26 07:43:33;;;;;;;27.63;15.10;;;;;;;;;;771881;179;918088;-61
2023/01/26 07:45:59;;;;;;;32.33;16.03;;;;;;;;;;775116;181;919337;-66
2023/01/26 07:48:25;;;;;;;27.40;13.83;;;;;;;;;;769072;180;918772;-65
2023/01/26 07:50:50;;;;;;;24.93;14.13;;;;;;;;;;765318;180;918617;-66
2023/01/26 07:53:20;;;;;;;27.58;16.20;;;;;;;;;;771233;180;918195;-66
2023/01/26 07:55:44;;;;;;;27.53;15.37;;;;;;;;;;767369;184;916680;-67
2023/01/26 07:58:10;;;;;;;25.27;14.77;;;;;;;;;;766400;179;919896;-62
2023/01/26 08:00:36;;;;;;;25.10;13.60;;;;;;;;;;776023;180;919340;-65
2023/01/26 08:03:02;;;;;;;24.73;14.17;;;;;;;;;;773974;180;918393;-61
2023/01/26 08:05:28;;;;;;;27.67;14.80;;;;;;;;;;768210;180;917993;-61
2023/01/26 08:07:53;;;;;;;25.10;14.80;;;;;;;;;;774308;180;909076;-61
2023/01/26 08:10:19;;;;;;;26.23;15.75;;;;;;;;;;765770;182;939119;-66
2023/01/26 08:12:45;;;;;;;24.77;14.90;;;;;;;;;;765765;181;920645;-61
2023/01/26 08:15:11;;;;;;;33.13;17.40;;;;;;;;;;770911;181;820481;-61
2023/01/26 08:17:37;;;;;;;27.80;15.67;;;;;;;;;;776233;180;918570;-65
2023/01/26 08:20:03;;;;;;;26.03;15.67;;;;;;;;;;772534;179;933640;-60
2023/01/26 08:22:29;;;;;;;28.20;16.50;;;;;;;;;;774453;180;817535;-65
2023/01/26 08:24:55;;;;;;;27.23;16.80;;;;;;;;;;775145;180;920629;-61
2023/01/26 08:27:21;;;;;;;36.03;17.90;;;;;;;;;;778938;180;919238;-65
2023/01/26 08:29:46;;;;;;;33.43;17.90;;;;;;;;;;774944;180;918797;-60
2023/01/26 08:32:12;;;;;;;30.73;16.52;;;;;;;;;;778047;180;916790;-60
2023/01/26 08:34:38;;;;;;;28.50;16.17;;;;;;;;;;781341;180;917929;-59
2023/01/26 08:37:04;;;;;;;29.57;17.27;;;;;;;;;;758002;183;918093;-59
2023/01/26 08:39:30;;;;;;;36.55;17.58;;;;;;;;;;762615;181;919553;-65
2023/01/26 08:41:56;;;;;;;28.17;16.90;;;;;;;;;;769276;183;818151;-66
2023/01/26 08:44:22;;;;;;;30.70;17.13;;;;;;;;;;766341;181;919712;-60
2023/01/26 08:46:47;;;;;;;30.50;16.83;;;;;;;;;;767284;181;919705;-60
2023/01/26 08:49:13;;;;;;;23.83;12.60;;;;;;;;;;768696;181;916441;-60
2023/01/26 08:51:39;;;;;;;27.70;14.60;;;;;;;;;;766398;181;918685;-65
2023/01/26 08:54:07;;;;;;;24.80;14.10;;;;;;;;;;770297;181;809612;-66
2023/01/26 08:56:31;;;;;;;25.00;14.20;;;;;;;;;;768477;181;920249;-60
2023/01/26 08:58:57;;;;;;;23.10;13.60;;;;;;;;;;774617;181;918448;-60
2023/01/26 09:01:23;;;;;;;23.23;13.33;;;;;;;;;;773173;181;919700;-65
2023/01/26 09:03:50;;;;;;;25.20;13.60;;;;;;;;;;774620;179;918726;-61
2023/01/26 09:06:14;;;;;;;25.50;14.43;;;;;;;;;;774143;181;917759;-60
2023/01/26 09:08:40;;;;;;;18.83;13.03;;;;;;;;;;769773;181;919000;-61
2023/01/26 09:11:06;;;;;;;27.30;15.52;;;;;;;;;;771590;180;918941;-61
2023/01/26 09:13:32;;;;;;;26.80;15.17;;;;;;;;;;767623;180;919156;-63
2023/01/26 09:15:58;;;;;;;27.80;14.90;;;;;;;;;;764443;184;918522;-65
2023/01/26 09:18:24;;;;;;;28.83;14.80;;;;;;;;;;766237;181;919404;-61
2023/01/26 09:20:50;;;;;;;30.87;16.13;;;;;;;;;;772254;180;975534;-65
2023/01/26 09:23:17;;;;;;;29.13;15.60;;;;;;;;;;779727;180;919446;-66
2023/01/26 09:25:41;;;;;;;25.27;13.32;;;;;;;;;;770792;181;906717;-66
2023/01/26 09:28:07;;;;;;;26.10;14.23;;;;;;;;;;768371;181;919756;-61
2023/01/26 09:30:33;;;;;;;27.43;13.57;;;;;;;;;;777586;181;919036;-65
2023/01/26 09:32:59;;;;;;;27.70;15.27;;;;;;;;;;770237;181;819347;-80
2023/01/26 09:35:24;;;;;;;30.63;15.37;;;;;;;;;;769358;181;918785;-66
2023/01/26 09:37:50;;;;;;;28.73;13.97;;;;;;;;;;771322;181;817497;-66
2023/01/26 09:40:17;;;;;;;26.57;14.77;;;;;;;;;;764541;181;817373;-66
2023/01/26 09:42:45;;;;;;;29.37;13.93;;;;;;;;;;763560;182;816979;-61
2023/01/26 09:45:14;;;;;;;26.50;14.20;;;;;;;;;;770169;180;1012992;-67
2023/01/26 09:47:58;;;;;;;22.63;13.73;;;;;;;;;;775665;181;919524;-67
2023/01/26 09:50:39;;;;;;;24.70;14.70;;;;;;;;;;767440;180;918536;-67
2023/01/26 09:53:06;;;;;;;30.20;14.20;;;;;;;;;;781787;180;816904;-61
2023/01/26 09:55:32;;;;;;;22.60;13.50;;;;;;;;;;777995;180;626794;-61
2023/01/26 09:58:03;;;;;;;24.50;12.82;;;;;;;;;;775800;180;913808;-68
2023/01/26 10:00:31;;;;;;;27.20;14.97;;;;;;;;;;766825;180;915591;-66
2023/01/26 10:02:59;;;;;;;26.13;15.27;;;;;;;;;;769755;180;900117;-61
2023/01/26 10:05:29;;;;;;;25.00;13.70;;;;;;;;;;768067;181;817304;-61
2023/01/26 10:07:55;;;;;;;26.37;13.57;;;;;;;;;;773493;181;633975;-66
2023/01/26 10:10:23;;;;;;;29.13;15.33;;;;;;;;;;777791;180;635245;-66
2023/01/26 10:12:50;;;;;;;27.80;13.53;;;;;;;;;;780923;180;620123;-66
2023/01/26 10:15:15;;;;;;;25.50;14.40;;;;;;;;;;775017;180;890942;-66
2023/01/26 10:17:41;;;;;;;22.37;12.70;;;;;;;;;;775194;180;879551;-61
2023/01/26 10:20:09;;;;;;;27.17;14.77;;;;;;;;;;777141;180;920924;-69
2023/01/26 10:22:36;;;;;;;30.07;16.67;;;;;;;;;;776113;180;922932;-67
2023/01/26 10:25:02;;;;;;;24.67;14.60;;;;;;;;;;777609;180;919746;-61
2023/01/26 10:27:28;;;;;;;24.87;15.60;;;;;;;;;;774639;180;921089;-61
2023/01/26 10:29:53;;;;;;;32.10;16.53;;;;;;;;;;778780;179;919310;-66
2023/01/26 10:32:19;;;;;;;20.70;14.07;;;;;;;;;;772349;181;815476;-61
2023/01/26 10:34:45;;;;;;;26.23;14.93;;;;;;;;;;773425;180;919505;-61
2023/01/26 10:37:16;;;;;;;25.87;15.07;;;;;;;;;;778905;181;817979;-61
2023/01/26 10:39:58;;;;;;;23.63;13.03;;;;;;;;;;773597;180;918202;-67
2023/01/26 10:42:24;;;;;;;25.80;14.70;;;;;;;;;;774091;179;855025;-62
2023/01/26 10:44:50;;;;;;;24.90;14.43;;;;;;;;;;771382;180;918017;-67
2023/01/26 10:47:15;;;;;;;23.37;14.10;;;;;;;;;;772277;180;919386;-62
2023/01/26 10:49:41;;;;;;;24.47;16.17;;;;;;;;;;774034;181;914720;-67
2023/01/26 10:52:08;;;;;;;29.85;15.68;;;;;;;;;;769214;181;913147;-62
2023/01/26 10:54:35;;;;;;;28.37;16.00;;;;;;;;;;765662;181;912524;-61
2023/01/26 10:57:03;;;;;;;26.23;16.47;;;;;;;;;;771855;181;918327;-68
2023/01/26 10:59:29;;;;;;;28.30;14.27;;;;;;;;;;769671;181;920088;-61
2023/01/26 11:01:56;;;;;;;24.23;13.37;;;;;;;;;;771125;181;827157;-68
2023/01/26 11:04:22;;;;;;;21.83;12.07;;;;;;;;;;779518;180;921359;-61
2023/01/26 11:06:48;;;;;;;27.17;14.63;;;;;;;;;;779203;181;918472;-60
2023/01/26 11:09:17;;;;;;;28.97;15.00;;;;;;;;;;764371;181;920135;-67
2023/01/26 11:11:57;;;;;;;26.77;15.40;;;;;;;;;;757205;184;920329;-61
2023/01/26 11:14:23;;;;;;;26.37;14.13;;;;;;;;;;748522;186;914739;-62
2023/01/26 11:16:49;;;;;;;24.73;14.80;;;;;;;;;;745596;189;920988;-61
2023/01/26 11:19:15;;;;;;;27.67;15.40;;;;;;;;;;742139;185;938345;-67
2023/01/26 11:21:44;;;;;;;26.73;13.38;;;;;;;;;;744444;184;941704;-61
2023/01/26 11:24:24;;;;;;;24.80;14.53;;;;;;;;;;760290;184;815970;-61
2023/01/26 11:26:56;;;;;;;23.20;12.90;;;;;;;;;;765201;184;893588;-68
2023/01/26 11:29:37;;;;;;;20.80;12.10;;;;;;;;;;757287;184;921649;-61
2023/01/26 11:32:22;;;;;;;26.00;14.33;;;;;;;;;;776075;180;918567;-69
2023/01/26 11:34:59;;;;;;;22.30;13.23;;;;;;;;;;779021;180;822040;-61
2023/01/26 11:37:31;;;;;;;27.70;14.50;;;;;;;;;;770589;179;930315;-68
2023/01/26 11:39:57;;;;;;;22.75;13.65;;;;;;;;;;771048;180;920270;-68
2023/01/26 11:42:22;;;;;;;24.10;13.90;;;;;;;;;;762534;182;919276;-61
2023/01/26 11:44:52;;;;;;;20.00;13.33;;;;;;;;;;770447;180;919631;-61
2023/01/26 11:47:35;;;;;;;30.13;17.00;;;;;;;;;;776311;180;919783;-61
2023/01/26 11:50:02;;;;;;;26.67;15.20;;;;;;;;;;774382;180;914826;-68
2023/01/26 11:52:31;;;;;;;25.93;15.90;;;;;;;;;;774682;180;917931;-61
2023/01/26 11:54:57;;;;;;;22.35;13.65;;;;;;;;;;763482;181;923922;-71
2023/01/26 11:57:27;;;;;;;22.40;12.90;;;;;;;;;;781276;180;895185;-61
2023/01/26 11:59:54;;;;;;;26.73;15.83;;;;;;;;;;779299;180;817222;-61
2023/01/26 12:02:25;;;;;;;24.80;13.30;;;;;;;;;;767994;180;931652;-61
2023/01/26 12:04:54;;;;;;;23.60;12.18;;;;;;;;;;772793;180;919346;-67
2023/01/26 12:07:17;;;;;;;21.13;12.57;;;;;;;;;;775037;180;816430;-61
2023/01/26 12:09:44;;;;;;;18.03;12.60;;;;;;;;;;766480;181;813400;-61
2023/01/26 12:12:12;;;;;;;20.73;12.50;;;;;;;;;;760289;182;919577;-69
2023/01/26 12:14:41;;;;;;;24.40;13.93;;;;;;;;;;768781;181;917687;-68
2023/01/26 12:17:07;;;;;;;24.83;14.70;;;;;;;;;;776520;180;917420;-69
2023/01/26 12:19:33;;;;;;;26.00;13.90;;;;;;;;;;768625;181;902742;-62
2023/01/26 12:21:59;;;;;;;26.87;12.73;;;;;;;;;;772550;180;940983;-68
2023/01/26 12:24:27;;;;;;;24.13;13.30;;;;;;;;;;776443;181;918441;-68
2023/01/26 12:26:53;;;;;;;22.50;11.67;;;;;;;;;;767718;180;919832;-61
2023/01/26 12:29:23;;;;;;;20.40;10.63;;;;;;;;;;771075;180;919304;-62
2023/01/26 12:31:53;;;;;;;15.80;9.20;;;;;;;;;;767507;181;916032;-66
2023/01/26 12:34:19;;;;;;;16.17;10.97;;;;;;;;;;772994;180;916197;-61
2023/01/26 12:36:47;;;;;;;17.87;10.90;;;;;;;;;;769412;182;914495;-68
2023/01/26 12:39:17;;;;;;;20.42;10.15;;;;;;;;;;771270;180;919530;-62
2023/01/26 12:41:49;;;;;;;18.75;11.50;;;;;;;;;;767016;182;855586;-62
2023/01/26 12:44:21;;;;;;;16.53;10.23;;;;;;;;;;767174;182;919068;-69
2023/01/26 12:46:47;;;;;;;15.10;9.60;;;;;;;;;;776282;179;922395;-68
2023/01/26 12:49:14;;;;;;;16.30;10.30;;;;;;;;;;771268;179;918583;-61
2023/01/26 12:51:39;;;;;;;16.07;9.77;;;;;;;;;;768307;180;919829;-62
2023/01/26 12:54:05;;;;;;;17.90;9.30;;;;;;;;;;766885;181;916923;-62
2023/01/26 12:56:32;;;;;;;13.48;8.90;;;;;;;;;;764556;181;915818;-68
2023/01/26 12:58:58;;;;;;;15.77;9.30;;;;;;;;;;770394;181;919555;-62
2023/01/26 13:01:24;;;;;;;14.63;8.30;;;;;;;;;;774990;181;919221;-61
2023/01/26 13:03:54;;;;;;;15.40;9.00;;;;;;;;;;767894;181;925446;-62
2023/01/26 13:06:22;;;;;;;14.90;8.60;;;;;;;;;;773392;181;837293;-68
2023/01/26 13:08:52;;;;;;;14.80;8.90;;;;;;;;;;772089;181;917428;-62
2023/01/26 13:11:30;;;;;;;16.80;10.00;;;;;;;;;;779946;180;915065;-67
2023/01/26 13:13:56;;;;;;;14.80;9.77;;;;;;;;;;775818;180;917813;-61
2023/01/26 13:16:37;;;;;;;19.73;10.70;;;;;;;;;;759574;180;919540;-68
2023/01/26 13:19:03;;;;;;;14.60;9.10;;;;;;;;;;763360;181;920968;-68
2023/01/26 13:21:43;;;;;;;15.83;10.03;;;;;;;;;;769880;181;919841;-62
2023/01/26 13:24:30;;;;;;;14.83;8.87;;;;;;;;;;771356;179;916900;-71
2023/01/26 13:26:56;;;;;;;18.10;10.27;;;;;;;;;;768040;180;919567;-62
2023/01/26 13:29:32;;;;;;;16.40;9.20;;;;;;;;;;773925;180;845108;-68
2023/01/26 13:31:58;;;;;;;22.27;10.87;;;;;;;;;;774406;181;920435;-68
2023/01/26 13:34:23;;;;;;;16.23;10.77;;;;;;;;;;770211;181;919440;-62
2023/01/26 13:36:49;;;;;;;13.70;8.70;;;;;;;;;;774724;180;816817;-68
2023/01/26 13:39:16;;;;;;;14.53;8.87;;;;;;;;;;780068;180;900376;-62
2023/01/26 13:41:43;;;;;;;15.13;9.53;;;;;;;;;;767241;181;816595;-62
2023/01/26 13:44:09;;;;;;;14.60;8.97;;;;;;;;;;771002;180;927329;-69
2023/01/26 13:46:37;;;;;;;15.27;9.32;;;;;;;;;;761581;181;918576;-68
2023/01/26 13:49:03;;;;;;;17.00;10.00;;;;;;;;;;743944;187;866275;-68
2023/01/26 13:51:29;;;;;;;16.70;9.83;;;;;;;;;;763833;181;714644;-69
2023/01/26 13:53:58;;;;;;;18.20;10.73;;;;;;;;;;765999;181;887270;-68
2023/01/26 13:56:28;;;;;;;18.83;10.73;;;;;;;;;;777409;178;915882;-69
2023/01/26 13:58:53;;;;;;;17.37;10.97;;;;;;;;;;773869;179;785718;-69
2023/01/26 14:01:19;;;;;;;16.83;10.07;;;;;;;;;;775716;180;900262;-62
2023/01/26 14:03:45;;;;;;;19.77;10.65;;;;;;;;;;776660;179;929659;-67
2023/01/26 14:06:17;;;;;;;19.77;10.87;;;;;;;;;;776116;179;919688;-62
2023/01/26 14:08:42;;;;;;;17.43;10.43;;;;;;;;;;763135;183;1025635;-69
2023/01/26 14:11:15;;;;;;;15.50;9.53;;;;;;;;;;764371;180;919693;-62
2023/01/26 14:13:41;;;;;;;15.27;9.70;;;;;;;;;;771068;180;918905;-62
2023/01/26 14:16:07;;;;;;;21.00;10.87;;;;;;;;;;770368;181;936405;-62
2023/01/26 14:18:32;;;;;;;18.33;12.00;;;;;;;;;;762455;182;843921;-69
2023/01/26 14:21:00;;;;;;;24.43;13.40;;;;;;;;;;767537;180;861797;-62
2023/01/26 14:23:26;;;;;;;23.23;12.90;;;;;;;;;;775222;180;767947;-62
2023/01/26 14:25:57;;;;;;;18.25;11.65;;;;;;;;;;771284;180;915291;-68
2023/01/26 14:28:24;;;;;;;21.17;11.30;;;;;;;;;;771661;180;817553;-65
2023/01/26 14:30:50;;;;;;;19.20;11.60;;;;;;;;;;769965;180;912078;-62
2023/01/26 14:33:16;;;;;;;23.40;13.20;;;;;;;;;;769629;182;917034;-61
2023/01/26 14:35:42;;;;;;;24.13;13.07;;;;;;;;;;767943;180;922421;-62
2023/01/26 14:38:13;;;;;;;21.20;12.40;;;;;;;;;;781036;180;919533;-69
2023/01/26 14:40:43;;;;;;;23.90;14.20;;;;;;;;;;772780;181;909107;-62
2023/01/26 14:43:09;;;;;;;25.00;12.93;;;;;;;;;;768609;181;919028;-61
2023/01/26 14:45:34;;;;;;;21.20;12.10;;;;;;;;;;768454;180;919282;-68
2023/01/26 14:48:00;;;;;;;20.10;13.43;;;;;;;;;;773759;180;908415;-69
2023/01/26 14:50:28;;;;;;;22.53;12.23;;;;;;;;;;779009;180;819753;-61